createdAt,value
2023-03-26T00:02:12.287Z,99720.63
2023-03-26T00:05:15.602Z,99710.53
2023-03-26T00:08:18.514Z,99710.63
2023-03-26T00:11:23.005Z,99712.88
2023-03-26T00:14:27.621Z,99716.00
2023-03-26T00:17:30.847Z,99710.31
2023-03-26T00:20:33.608Z,99707.97
2023-03-26T00:23:37.207Z,99715.28
2023-03-26T00:26:41.231Z,99722.84
2023-03-26T00:29:43.964Z,99717.28
2023-03-26T00:32:53.723Z,99721.34
2023-03-26T00:35:59.251Z,99716.91
2023-03-26T00:39:05.941Z,99714.75
2023-03-26T00:42:09.003Z,99708.78
2023-03-26T00:45:12.194Z,99705.06
2023-03-26T00:48:15.187Z,99698.31
2023-03-26T00:51:18.898Z,99693.97
2023-03-26T00:54:21.670Z,99685.78
2023-03-26T00:57:34.867Z,99684.03
2023-03-26T01:00:48.895Z,99685.91
2023-03-26T01:04:08.106Z,99675.72
2023-03-26T01:07:13.764Z,99673.72
2023-03-26T01:10:16.559Z,99670.72
2023-03-26T01:13:24.166Z,99663.38
2023-03-26T01:16:27.111Z,99659.88
2023-03-26T01:19:38.895Z,99672.81
2023-03-26T01:22:47.988Z,99668.50
2023-03-26T01:25:58.155Z,99670.72
2023-03-26T01:29:02.924Z,99662.69
2023-03-26T01:32:05.443Z,99676.03
2023-03-26T01:35:26.686Z,99669.09
2023-03-26T01:38:48.651Z,99665.22
2023-03-26T01:41:57.445Z,99666.75
2023-03-26T01:45:16.251Z,99680.25
2023-03-26T01:48:18.899Z,99669.62
2023-03-26T01:51:29.460Z,99665.50
2023-03-26T01:54:32.649Z,99673.28
2023-03-26T01:57:44.744Z,99675.31
2023-03-26T02:00:56.020Z,99676.47
2023-03-26T02:04:02.932Z,99680.69
2023-03-26T02:07:18.548Z,99686.44
2023-03-26T02:10:29.094Z,99701.91
2023-03-26T02:13:32.824Z,99694.25
2023-03-26T02:16:35.380Z,99703.25
2023-03-26T02:19:42.465Z,99702.50
2023-03-26T02:22:46.307Z,99708.25
2023-03-26T02:25:49.136Z,99707.97
2023-03-26T02:28:51.712Z,99709.34
2023-03-26T02:31:54.312Z,99709.47
2023-03-26T02:34:56.913Z,99695.00
2023-03-26T02:37:59.576Z,99699.69
2023-03-26T02:41:03.227Z,99691.94
2023-03-26T02:44:06.490Z,99691.31
2023-03-26T02:47:08.896Z,99686.66
2023-03-26T02:50:12.360Z,99684.06
2023-03-26T02:53:15.146Z,99679.81
2023-03-26T02:56:18.318Z,99675.66
2023-03-26T02:59:21.014Z,99671.63
2023-03-26T03:02:24.706Z,99676.72
2023-03-26T03:05:28.006Z,99679.13
2023-03-26T03:08:31.227Z,99678.94
2023-03-26T03:11:34.322Z,99678.28
2023-03-26T03:14:38.555Z,99678.50
2023-03-26T03:17:42.091Z,99683.00
2023-03-26T03:20:45.421Z,99678.41
2023-03-26T03:23:48.623Z,99685.59
2023-03-26T03:26:55.629Z,99681.31
2023-03-26T03:29:59.400Z,99682.56
2023-03-26T03:33:02.922Z,99679.75
2023-03-26T03:36:20.420Z,99686.19
2023-03-26T03:39:24.499Z,99681.50
2023-03-26T03:42:27.893Z,99680.56
2023-03-26T03:45:30.645Z,99679.63
2023-03-26T03:48:33.982Z,99699.09
2023-03-26T03:51:36.425Z,99711.50
2023-03-26T03:54:38.980Z,99703.37
2023-03-26T03:57:41.146Z,99707.28
2023-03-26T04:00:45.329Z,99706.75
2023-03-26T04:03:48.515Z,99706.84
2023-03-26T04:06:51.806Z,99707.97
2023-03-26T04:09:54.848Z,99714.91
2023-03-26T04:12:57.976Z,99714.19
2023-03-26T04:16:00.811Z,99716.75
2023-03-26T04:19:04.337Z,99705.78
2023-03-26T04:22:07.295Z,99701.50
2023-03-26T04:25:10.380Z,99707.44
2023-03-26T04:28:15.422Z,99700.88
2023-03-26T04:31:24.945Z,99695.97
2023-03-26T04:34:28.311Z,99696.84
2023-03-26T04:37:35.253Z,99698.88
2023-03-26T04:40:39.469Z,99699.25
2023-03-26T04:43:47.805Z,99699.03
2023-03-26T04:46:53.111Z,99712.00
2023-03-26T04:49:55.878Z,99708.59
2023-03-26T04:52:59.105Z,99713.56
2023-03-26T04:56:14.047Z,99705.09
2023-03-26T04:59:37.650Z,99708.59
2023-03-26T05:02:42.165Z,99711.53
2023-03-26T05:05:44.931Z,99715.84
2023-03-26T05:08:48.066Z,99708.97
2023-03-26T05:11:51.374Z,99701.50
2023-03-26T05:14:54.056Z,99698.31
2023-03-26T05:17:56.768Z,99697.63
2023-03-26T05:20:59.426Z,99699.66
2023-03-26T05:24:02.636Z,99706.91
2023-03-26T05:27:05.667Z,99703.91
2023-03-26T05:30:08.958Z,99696.91
2023-03-26T05:33:11.615Z,99702.28
2023-03-26T05:36:15.693Z,99705.19
2023-03-26T05:39:18.550Z,99698.00
2023-03-26T05:42:21.274Z,99705.13
2023-03-26T05:45:23.631Z,99707.03
2023-03-26T05:48:26.776Z,99711.87
2023-03-26T05:51:29.229Z,99708.88
2023-03-26T05:54:31.704Z,99721.59
2023-03-26T05:57:35.820Z,99712.81
2023-03-26T06:00:38.918Z,99709.72
2023-03-26T06:03:41.616Z,99713.59
2023-03-26T06:06:45.342Z,99711.06
2023-03-26T06:09:47.761Z,99714.19
2023-03-26T06:12:50.787Z,99713.00
2023-03-26T06:15:53.555Z,99705.22
2023-03-26T06:18:57.402Z,99717.75
2023-03-26T06:21:59.892Z,99720.56
2023-03-26T06:25:02.575Z,99715.06
2023-03-26T06:28:06.352Z,99721.38
2023-03-26T06:31:09.714Z,99738.62
2023-03-26T06:34:12.738Z,99725.31
2023-03-26T06:37:16.041Z,99720.75
2023-03-26T06:40:19.167Z,99719.41
2023-03-26T06:43:21.919Z,99723.56
2023-03-26T06:46:25.726Z,99729.63
2023-03-26T06:49:28.471Z,99740.25
2023-03-26T06:52:31.554Z,99739.00
2023-03-26T06:55:34.128Z,99738.56
2023-03-26T06:58:36.748Z,99748.09
2023-03-26T07:01:39.288Z,99750.75
2023-03-26T07:04:41.912Z,99746.81
2023-03-26T07:07:46.804Z,99739.22
2023-03-26T07:10:49.605Z,99747.84
2023-03-26T07:13:52.114Z,99744.81
2023-03-26T07:16:54.668Z,99749.75
2023-03-26T07:19:59.046Z,99742.66
2023-03-26T07:23:02.079Z,99740.34
2023-03-26T07:26:23.665Z,99731.75
2023-03-26T07:29:34.217Z,99725.38
2023-03-26T07:32:41.086Z,99741.22
2023-03-26T07:36:04.182Z,99744.09
2023-03-26T07:39:06.729Z,99751.50
2023-03-26T07:42:29.588Z,99747.25
2023-03-26T07:45:40.669Z,99741.75
2023-03-26T07:48:44.860Z,99738.00
2023-03-26T07:51:48.147Z,99730.09
2023-03-26T07:54:51.251Z,99739.75
2023-03-26T07:58:01.706Z,99736.44
2023-03-26T08:01:07.631Z,99733.09
2023-03-26T08:04:23.165Z,99735.00
2023-03-26T08:07:37.892Z,99728.44
2023-03-26T08:10:49.833Z,99734.53
2023-03-26T08:13:57.387Z,99730.31
2023-03-26T08:17:10.448Z,99721.47
2023-03-26T08:20:31.493Z,99730.12
2023-03-26T08:23:34.035Z,99721.19
2023-03-26T08:26:44.525Z,99725.31
2023-03-26T08:30:05.688Z,99719.75
2023-03-26T08:33:14.549Z,99709.56
2023-03-26T08:36:17.008Z,99718.03
2023-03-26T08:39:20.433Z,99715.78
2023-03-26T08:42:54.753Z,99716.91
2023-03-26T08:45:57.814Z,99711.84
2023-03-26T08:49:13.424Z,99709.53
2023-03-26T08:52:28.317Z,99706.38
2023-03-26T08:55:57.481Z,99699.13
2023-03-26T08:59:18.624Z,99704.00
2023-03-26T09:02:27.140Z,99702.63
2023-03-26T09:05:44.990Z,99692.56
2023-03-26T09:09:06.000Z,99706.84
2023-03-26T09:12:36.204Z,99703.03
2023-03-26T09:16:08.513Z,99693.47
2023-03-26T09:19:37.100Z,99697.00
2023-03-26T09:22:42.483Z,99686.97
2023-03-26T09:26:02.153Z,99688.44
2023-03-26T09:29:17.593Z,99677.72
2023-03-26T09:32:38.663Z,99672.31
2023-03-26T09:35:50.537Z,99672.87
2023-03-26T09:38:59.046Z,99675.00
2023-03-26T09:42:17.778Z,99674.19
2023-03-26T09:45:21.208Z,99664.34
2023-03-26T09:48:42.102Z,99658.66
2023-03-26T09:51:44.611Z,99652.97
2023-03-26T09:54:57.426Z,99650.53
2023-03-26T09:58:12.082Z,99646.06
2023-03-26T10:01:18.834Z,99647.09
2023-03-26T10:04:33.658Z,99633.44
2023-03-26T10:07:48.218Z,99626.22
2023-03-26T10:10:51.263Z,99607.75
2023-03-26T10:14:12.301Z,99607.91
2023-03-26T10:17:26.662Z,99610.09
2023-03-26T10:20:49.509Z,99601.84
2023-03-26T10:23:53.328Z,99607.38
2023-03-26T10:27:14.130Z,99619.50
2023-03-26T10:30:38.417Z,99631.88
2023-03-26T10:33:46.857Z,99658.13
2023-03-26T10:36:57.038Z,99657.06
2023-03-26T10:40:14.240Z,99626.72
2023-03-26T10:43:28.344Z,99615.22
2023-03-26T10:46:39.494Z,99603.50
2023-03-26T10:49:53.806Z,99590.37
2023-03-26T10:53:10.374Z,99578.81
2023-03-26T10:56:21.888Z,99576.50
2023-03-26T10:59:27.052Z,99567.72
2023-03-26T11:02:40.997Z,99564.75
2023-03-26T11:06:02.904Z,99563.78
2023-03-26T11:09:08.077Z,99556.00
2023-03-26T11:12:25.463Z,99544.25
2023-03-26T11:15:36.416Z,99541.94
2023-03-26T11:18:38.410Z,99535.75
2023-03-26T11:22:12.665Z,99519.03
2023-03-26T11:25:23.747Z,99514.97
2023-03-26T11:28:31.693Z,99503.16
2023-03-26T11:31:33.703Z,99503.72
2023-03-26T11:34:40.540Z,99490.91
2023-03-26T11:37:43.853Z,99499.56
2023-03-26T11:40:50.938Z,99492.56
2023-03-26T11:44:05.943Z,99485.38
2023-03-26T11:47:10.583Z,99471.66
2023-03-26T11:50:27.273Z,99477.09
2023-03-26T11:53:31.462Z,99470.06
2023-03-26T11:56:36.085Z,99465.38
2023-03-26T11:59:55.724Z,99456.19
2023-03-26T12:02:59.757Z,99444.84
2023-03-26T12:06:03.149Z,99432.53
2023-03-26T12:09:16.995Z,99435.31
2023-03-26T12:12:19.995Z,99414.59
2023-03-26T12:15:22.799Z,99405.22
2023-03-26T12:18:26.729Z,99409.16
2023-03-26T12:21:29.870Z,99403.72
2023-03-26T12:24:36.472Z,99400.22
2023-03-26T12:27:43.236Z,99391.66
2023-03-26T12:30:59.963Z,99388.25
2023-03-26T12:34:15.549Z,99377.97
2023-03-26T12:37:38.185Z,99377.94
2023-03-26T12:40:42.709Z,99364.72
2023-03-26T12:44:55.268Z,99356.28
2023-03-26T12:47:55.305Z,99351.28
2023-03-26T12:50:53.483Z,99332.94
2023-03-26T12:54:05.966Z,99343.22
2023-03-26T12:57:27.034Z,99331.00
2023-03-26T13:00:36.280Z,99336.44
2023-03-26T13:03:44.740Z,99339.97
2023-03-26T13:07:00.392Z,99335.69
2023-03-26T13:10:23.627Z,99338.66
2023-03-26T13:13:32.703Z,99315.16
2023-03-26T13:16:54.175Z,99304.75
2023-03-26T13:19:57.221Z,99305.97
2023-03-26T13:23:09.564Z,99300.50
2023-03-26T13:26:27.197Z,99287.97
2023-03-26T13:29:42.766Z,99285.06
2023-03-26T13:32:46.093Z,99278.50
2023-03-26T13:35:51.646Z,99270.31
2023-03-26T13:39:00.756Z,99267.97
2023-03-26T13:42:16.183Z,99267.59
2023-03-26T13:45:38.376Z,99260.16
2023-03-26T13:48:50.982Z,99262.75
2023-03-26T13:51:57.176Z,99243.56
2023-03-26T13:55:05.560Z,99247.66
2023-03-26T13:58:11.582Z,99243.72
2023-03-26T14:01:34.534Z,99234.53
2023-03-26T14:04:44.641Z,99233.34
2023-03-26T14:07:50.911Z,99216.53
2023-03-26T14:10:57.590Z,99218.69
2023-03-26T14:14:23.238Z,99208.06
2023-03-26T14:17:29.009Z,99211.44
2023-03-26T14:20:56.930Z,99206.97
2023-03-26T14:24:18.016Z,99214.63
2023-03-26T14:27:29.773Z,99197.69
2023-03-26T14:30:55.043Z,99197.06
2023-03-26T14:34:24.068Z,99196.94
2023-03-26T14:37:29.750Z,99190.75
2023-03-26T14:40:41.509Z,99183.91
2023-03-26T14:43:43.821Z,99180.88
2023-03-26T14:46:50.132Z,99176.63
2023-03-26T14:50:04.760Z,99181.75
2023-03-26T14:53:13.992Z,99172.59
2023-03-26T14:56:27.550Z,99168.00
2023-03-26T14:59:48.631Z,99163.37
2023-03-26T15:03:10.481Z,99153.91
2023-03-26T15:06:48.300Z,99137.72
2023-03-26T15:10:09.394Z,99131.63
2023-03-26T15:13:31.066Z,99123.97
2023-03-26T15:16:48.817Z,99120.72
2023-03-26T15:19:51.121Z,99117.31
2023-03-26T15:23:12.449Z,99113.78
2023-03-26T15:26:37.505Z,99112.50
2023-03-26T15:29:54.758Z,99106.59
2023-03-26T15:33:12.675Z,99102.41
2023-03-26T15:36:34.754Z,99094.66
2023-03-26T15:40:08.057Z,99094.13
2023-03-26T15:43:15.474Z,99084.78
2023-03-26T15:46:36.976Z,99083.75
2023-03-26T15:49:46.093Z,99090.78
2023-03-26T15:52:58.032Z,99086.59
2023-03-26T15:56:18.137Z,99080.72
2023-03-26T15:59:37.104Z,99088.06
2023-03-26T16:03:00.107Z,99073.50
2023-03-26T16:06:16.173Z,99065.19
2023-03-26T16:09:32.798Z,99060.84
2023-03-26T16:12:47.942Z,99054.19
2023-03-26T16:16:11.414Z,99043.13
2023-03-26T16:19:20.444Z,99037.06
2023-03-26T16:22:42.539Z,99034.41
2023-03-26T16:25:57.876Z,99028.25
2023-03-26T16:29:06.462Z,99015.31
2023-03-26T16:32:09.368Z,99004.44
2023-03-26T16:35:15.024Z,99011.06
2023-03-26T16:38:19.642Z,99008.13
2023-03-26T16:41:26.792Z,99007.88
2023-03-26T16:44:50.516Z,99016.75
2023-03-26T16:48:16.210Z,99006.91
2023-03-26T16:51:37.317Z,99011.56
2023-03-26T16:54:49.286Z,99015.38
2023-03-26T16:57:56.781Z,99019.81
2023-03-26T17:01:11.587Z,99015.72
2023-03-26T17:04:23.510Z,99013.94
2023-03-26T17:07:44.711Z,99008.69
2023-03-26T17:10:47.216Z,99008.56
2023-03-26T17:14:08.246Z,99009.19
2023-03-26T17:17:29.314Z,99009.38
2023-03-26T17:20:36.104Z,99004.63
2023-03-26T17:23:48.046Z,99008.84
2023-03-26T17:26:50.624Z,99011.78
2023-03-26T17:30:04.669Z,99009.00
2023-03-26T17:33:13.682Z,99012.59
2023-03-26T17:36:40.499Z,99013.59
2023-03-26T17:39:43.688Z,99006.06
2023-03-26T17:43:01.681Z,99003.59
2023-03-26T17:46:06.439Z,99007.56
2023-03-26T17:49:14.682Z,99004.13
2023-03-26T17:52:21.418Z,99002.16
2023-03-26T17:55:31.501Z,99002.44
2023-03-26T17:58:42.918Z,99011.78
2023-03-26T18:01:48.277Z,99006.53
2023-03-26T18:04:54.317Z,98994.41
2023-03-26T18:07:57.179Z,99002.91
2023-03-26T18:11:18.144Z,99005.38
2023-03-26T18:14:35.271Z,99004.56
2023-03-26T18:17:43.626Z,99006.53
2023-03-26T18:20:47.488Z,98995.37
2023-03-26T18:23:50.968Z,99001.75
2023-03-26T18:26:58.943Z,99000.28
2023-03-26T18:30:02.982Z,99000.75
2023-03-26T18:33:15.762Z,98995.81
2023-03-26T18:36:20.019Z,98992.72
2023-03-26T18:39:22.374Z,98990.56
2023-03-26T18:42:25.395Z,98981.91
2023-03-26T18:45:39.208Z,98977.00
2023-03-26T18:48:41.944Z,98975.38
2023-03-26T18:51:56.240Z,98975.84
2023-03-26T18:54:59.980Z,98970.75
2023-03-26T18:58:10.671Z,98953.88
2023-03-26T19:01:23.841Z,98934.72
2023-03-26T19:04:31.308Z,98943.06
2023-03-26T19:07:35.811Z,98939.28
2023-03-26T19:10:38.363Z,98936.66
2023-03-26T19:13:42.113Z,98925.50
2023-03-26T19:16:56.666Z,98927.25
2023-03-26T19:19:59.187Z,98917.69
2023-03-26T19:23:01.547Z,98918.94
2023-03-26T19:26:05.528Z,98915.56
2023-03-26T19:29:12.276Z,98922.72
2023-03-26T19:32:40.778Z,98916.41
2023-03-26T19:35:44.729Z,98901.84
2023-03-26T19:38:49.865Z,98900.88
2023-03-26T19:41:52.922Z,98893.75
2023-03-26T19:44:56.751Z,98883.13
2023-03-26T19:48:14.378Z,98873.47
2023-03-26T19:51:22.396Z,98868.66
2023-03-26T19:54:25.467Z,98863.59
2023-03-26T19:57:32.358Z,98860.66
2023-03-26T20:00:34.936Z,98849.84
2023-03-26T20:03:39.639Z,98842.13
2023-03-26T20:06:44.141Z,98836.28
2023-03-26T20:09:46.902Z,98832.00
2023-03-26T20:12:54.831Z,98827.09
2023-03-26T20:16:18.818Z,98817.09
2023-03-26T20:19:21.339Z,98807.94
2023-03-26T20:22:24.932Z,98803.69
2023-03-26T20:25:31.157Z,98798.63
2023-03-26T20:28:42.432Z,98785.69
2023-03-26T20:31:50.568Z,98785.06
2023-03-26T20:34:53.070Z,98775.56
2023-03-26T20:37:55.394Z,98772.78
2023-03-26T20:40:58.564Z,98774.53
2023-03-26T20:44:01.335Z,98770.16
2023-03-26T20:47:04.230Z,98766.19
2023-03-26T20:50:07.086Z,98770.28
2023-03-26T20:53:14.377Z,98756.41
2023-03-26T20:56:18.051Z,98761.16
2023-03-26T20:59:22.476Z,98755.41
2023-03-26T21:02:25.975Z,98755.59
2023-03-26T21:05:29.708Z,98747.22
2023-03-26T21:08:35.212Z,98741.72
2023-03-26T21:11:41.576Z,98737.66
2023-03-26T21:14:44.538Z,98738.09
2023-03-26T21:17:47.304Z,98743.16
2023-03-26T21:20:58.646Z,98733.19
2023-03-26T21:24:14.567Z,98740.06
2023-03-26T21:27:20.724Z,98749.38
2023-03-26T21:30:24.016Z,98761.97
2023-03-26T21:33:27.827Z,98766.66
2023-03-26T21:36:30.645Z,98774.22
2023-03-26T21:39:33.605Z,98780.84
2023-03-26T21:42:36.267Z,98779.91
2023-03-26T21:45:39.435Z,98779.09
2023-03-26T21:48:42.799Z,98782.13
2023-03-26T21:51:45.582Z,98784.97
2023-03-26T21:54:48.666Z,98779.44
2023-03-26T21:58:12.573Z,98781.94
2023-03-26T22:01:20.807Z,98775.03
2023-03-26T22:04:37.063Z,98771.75
2023-03-26T22:07:48.452Z,98768.19
2023-03-26T22:10:50.905Z,98770.62
2023-03-26T22:13:53.616Z,98761.25
2023-03-26T22:16:56.294Z,98763.66
2023-03-26T22:19:58.844Z,98766.87
2023-03-26T22:23:02.295Z,98759.44
2023-03-26T22:26:05.540Z,98748.97
2023-03-26T22:29:07.767Z,98760.38
2023-03-26T22:32:10.129Z,98754.06
2023-03-26T22:35:13.062Z,98758.59
2023-03-26T22:38:17.049Z,98746.16
2023-03-26T22:41:19.178Z,98736.47
2023-03-26T22:44:21.627Z,98737.09
2023-03-26T22:47:23.681Z,98737.00
2023-03-26T22:50:26.081Z,98727.47
2023-03-26T22:53:28.268Z,98718.22
2023-03-26T22:56:30.590Z,98715.72
2023-03-26T22:59:32.465Z,98714.63
2023-03-26T23:02:34.346Z,98703.59
2023-03-26T23:05:36.295Z,98699.31
2023-03-26T23:08:38.890Z,98697.53
2023-03-26T23:11:41.147Z,98702.22
2023-03-26T23:14:43.594Z,98695.66
2023-03-26T23:17:45.670Z,98691.97
2023-03-26T23:20:57.920Z,98688.50
2023-03-26T23:24:00.042Z,98679.31
2023-03-26T23:27:01.995Z,98680.56
2023-03-26T23:30:04.289Z,98678.25
2023-03-26T23:33:06.377Z,98673.00
2023-03-26T23:36:09.135Z,98673.84
2023-03-26T23:39:11.322Z,98670.69
2023-03-26T23:42:13.291Z,98653.94
2023-03-26T23:45:16.524Z,98656.72
2023-03-26T23:48:22.379Z,98651.53
2023-03-26T23:51:24.391Z,98642.22
2023-03-26T23:54:26.797Z,98627.88
2023-03-26T23:57:29.153Z,98623.78
